Time;durP1;ratioP1;P1;durP2;ratioP2;P2;SDS_P1;SDS_P2;PMS_P1;PMS_P2;Temp;Humidity;BMP_temperature;BMP_pressure;BME280_temperature;BME280_humidity;BME280_pressure;Samples;Min_cycle;Max_cycle;Signal;HPM_P1;HPM_P2
2021/12/12 11:15:29;;;;;;;34.60;21.40;;;;;;;6.92;100.00;102041.56;5364484;27;20426;-70
2021/12/12 11:18:13;;;;;;;32.60;19.80;;;;;;;7.03;100.00;102039.56;5349962;27;20065;-71
2021/12/12 11:21:08;;;;;;;33.27;20.17;;;;;;;7.15;100.00;102038.38;5351909;27;20023;-70
2021/12/12 11:23:50;;;;;;;;;;;;;;;7.22;100.00;102042.53;5353677;27;20026;-70
2021/12/12 11:26:31;;;;;;;26.50;17.60;;;;;;;7.24;100.00;102039.88;5352046;27;19918;-73
2021/12/12 11:29:06;;;;;;;24.37;19.10;;;;;;;7.29;100.00;102034.56;5353210;27;20027;-72
2021/12/12 11:31:56;;;;;;;23.23;16.43;;;;;;;7.42;100.00;102035.09;5351697;27;20481;-72
2021/12/12 11:34:28;;;;;;;21.03;15.37;;;;;;;7.39;100.00;102041.22;5349795;27;20110;-71
2021/12/12 11:37:08;;;;;;;24.30;15.87;;;;;;;7.48;100.00;102033.16;5352456;27;20106;-70
2021/12/12 11:39:48;;;;;;;20.27;14.23;;;;;;;7.52;100.00;102043.50;5334151;27;20081;-71
2021/12/12 11:42:41;;;;;;;21.23;14.77;;;;;;;7.55;100.00;102046.00;5333868;27;20033;-73
2021/12/12 11:45:27;;;;;;;22.57;16.60;;;;;;;7.54;100.00;102039.09;5348019;27;20038;-72
2021/12/12 11:48:12;;;;;;;22.53;14.20;;;;;;;7.59;100.00;102039.84;5332595;27;20481;-71
2021/12/12 11:50:59;;;;;;;19.13;13.87;;;;;;;7.67;100.00;102040.47;5332978;27;20194;-72
2021/12/12 11:53:42;;;;;;;18.23;13.70;;;;;;;7.66;100.00;102048.34;5349253;27;20035;-72
2021/12/12 11:56:18;;;;;;;19.50;14.03;;;;;;;7.65;100.00;102031.81;5352060;27;20045;-71
2021/12/12 11:59:02;;;;;;;17.67;13.33;;;;;;;7.72;100.00;102040.31;5351048;27;20103;-72
2021/12/12 12:01:45;;;;;;;18.50;12.83;;;;;;;7.75;100.00;102043.69;5332864;27;20632;-72
2021/12/12 12:05:05;;;;;;;19.13;13.57;;;;;;;7.78;100.00;102039.31;5339027;27;20664;-72
2021/12/12 12:08:01;;;;;;;16.97;12.03;;;;;;;7.86;100.00;102032.09;5270924;27;20039;-72
2021/12/12 12:10:57;;;;;;;13.77;11.77;;;;;;;7.99;100.00;102036.06;5349286;27;20027;-72
2021/12/12 12:13:41;;;;;;;16.30;12.37;;;;;;;7.85;100.00;102043.44;5352170;27;20381;-72
2021/12/12 12:16:27;;;;;;;18.30;13.57;;;;;;;7.88;100.00;102051.19;5348844;27;20030;-74
2021/12/12 12:19:12;;;;;;;17.73;11.40;;;;;;;7.91;100.00;102053.69;5330570;28;20276;-74
2021/12/12 12:21:52;;;;;;;14.77;12.57;;;;;;;7.97;100.00;102053.53;5349556;27;20571;-75
2021/12/12 12:24:38;;;;;;;14.83;11.17;;;;;;;7.96;100.00;102057.03;5350900;27;20529;-75
2021/12/12 12:27:17;;;;;;;14.47;11.40;;;;;;;7.98;100.00;102055.22;5332211;27;20420;-76
2021/12/12 12:30:00;;;;;;;17.83;12.30;;;;;;;7.99;100.00;102051.72;5317518;27;20027;-74
2021/12/12 12:33:09;;;;;;;15.97;12.63;;;;;;;8.08;100.00;102063.63;5335415;27;20031;-72
2021/12/12 12:36:17;;;;;;;19.53;12.43;;;;;;;8.06;100.00;102056.75;5334791;27;20062;-76
2021/12/12 12:39:26;;;;;;;15.07;11.93;;;;;;;8.18;100.00;102056.41;5309507;27;20026;-71
2021/12/12 12:42:38;;;;;;;18.00;13.43;;;;;;;8.16;100.00;102062.56;5329252;27;20137;-76
2021/12/12 12:46:06;;;;;;;17.70;13.37;;;;;;;8.30;100.00;102051.69;5312568;27;20367;-76
2021/12/12 12:49:14;;;;;;;17.20;12.37;;;;;;;8.23;100.00;102064.94;5328873;27;20015;-77
2021/12/12 12:51:51;;;;;;;18.30;13.27;;;;;;;8.13;100.00;102065.25;5331073;27;20520;-72
2021/12/12 12:54:45;;;;;;;20.50;13.87;;;;;;;8.15;100.00;102061.69;5326617;27;20035;-70
2021/12/12 12:57:24;;;;;;;16.87;13.40;;;;;;;8.13;100.00;102066.13;5335029;27;20613;-74
2021/12/12 13:00:06;;;;;;;18.00;13.27;;;;;;;8.23;100.00;102072.78;5327907;27;20889;-78
2021/12/12 13:03:19;;;;;;;20.80;14.33;;;;;;;8.28;100.00;102066.53;5331811;27;20071;-80
2021/12/12 13:06:07;;;;;;;18.10;13.20;;;;;;;8.37;100.00;102070.63;5325797;27;20031;-78
2021/12/12 13:08:50;;;;;;;20.37;13.73;;;;;;;8.37;100.00;102070.63;5335684;27;20072;-78
2021/12/12 13:11:34;;;;;;;17.90;13.63;;;;;;;8.29;100.00;102074.31;5334943;27;20028;-73
2021/12/12 13:14:24;;;;;;;16.77;12.50;;;;;;;8.37;100.00;102071.50;5330837;27;20490;-75
2021/12/12 13:17:01;;;;;;;15.33;12.53;;;;;;;8.37;100.00;102063.66;5330778;27;20031;-75
2021/12/12 13:20:02;;;;;;;16.60;11.87;;;;;;;8.36;100.00;102069.75;5334512;27;20549;-79
2021/12/12 13:22:44;;;;;;;16.07;12.93;;;;;;;8.34;100.00;102072.44;5333391;27;20042;-78
2021/12/12 13:25:39;;;;;;;17.17;12.53;;;;;;;8.40;100.00;102066.16;5313003;27;20035;-78
2021/12/12 13:28:31;;;;;;;15.13;12.63;;;;;;;8.36;100.00;102077.59;5331437;27;20391;-78
2021/12/12 13:31:19;;;;;;;17.07;12.77;;;;;;;8.34;100.00;102075.03;5336454;27;20118;-85
2021/12/12 13:34:11;;;;;;;15.03;12.20;;;;;;;8.48;100.00;102074.63;5335368;27;20393;-83
2021/12/12 13:37:07;;;;;;;13.43;11.87;;;;;;;8.47;100.00;102082.50;5326025;27;20054;-81
2021/12/12 13:40:01;;;;;;;13.20;11.27;;;;;;;8.45;100.00;102092.13;5325360;27;20205;-79
2021/12/12 13:43:10;;;;;;;15.07;10.93;;;;;;;8.50;100.00;102097.22;5334122;27;20077;-79
2021/12/12 13:45:55;;;;;;;13.70;11.20;;;;;;;8.44;100.00;102093.91;5332267;27;20385;-74
2021/12/12 13:48:26;;;;;;;;;;;;;;;8.61;100.00;102089.94;5331453;27;20027;-81
2021/12/12 13:51:34;;;;;;;13.95;11.32;;;;;;;8.49;100.00;102085.91;5335101;27;20482;-80
2021/12/12 13:54:31;;;;;;;14.23;12.23;;;;;;;8.56;100.00;102094.44;5316292;27;20504;-77
2021/12/12 13:57:24;;;;;;;15.40;11.83;;;;;;;8.51;100.00;102088.47;5334482;27;20023;-84
2021/12/12 14:00:13;;;;;;;16.70;11.87;;;;;;;8.61;100.00;102091.69;5317588;27;20060;-80
2021/12/12 14:02:49;;;;;;;16.40;13.00;;;;;;;8.52;100.00;102095.44;5333103;27;20389;-80
2021/12/12 14:05:32;;;;;;;16.20;13.37;;;;;;;8.55;100.00;102097.94;5326869;27;20613;-83
2021/12/12 14:08:08;;;;;;;15.97;13.77;;;;;;;8.53;100.00;102102.34;5334169;27;20031;-85
2021/12/12 14:10:45;;;;;;;15.90;12.93;;;;;;;8.57;100.00;102110.06;5334429;27;20040;-86
2021/12/12 14:13:21;;;;;;;17.13;14.13;;;;;;;8.56;100.00;102115.34;5333194;27;20108;-87
2021/12/12 14:16:01;;;;;;;18.07;14.13;;;;;;;8.47;100.00;102111.22;5334504;27;20031;-78
2021/12/12 14:18:40;;;;;;;19.13;14.73;;;;;;;8.44;100.00;102113.94;5329350;27;20781;-77
2021/12/12 14:21:18;;;;;;;17.43;14.33;;;;;;;8.50;100.00;102118.13;5334667;27;20026;-77
2021/12/12 14:23:50;;;;;;;16.67;13.13;;;;;;;8.42;100.00;102108.75;5335374;27;20400;-79
2021/12/12 14:26:28;;;;;;;18.10;14.83;;;;;;;8.53;100.00;102118.88;5334021;27;20027;-80
2021/12/12 14:29:02;;;;;;;17.87;13.57;;;;;;;8.53;100.00;102118.88;5335244;27;20046;-79
2021/12/12 14:31:41;;;;;;;15.90;14.15;;;;;;;8.53;100.00;102108.44;5333964;27;20140;-82
2021/12/12 14:34:19;;;;;;;18.53;15.23;;;;;;;8.58;100.00;102122.22;5333640;27;20031;-78
2021/12/12 14:36:52;;;;;;;17.70;15.80;;;;;;;8.51;100.00;102118.06;5331030;27;20444;-85
2021/12/12 14:39:24;;;;;;;19.13;14.70;;;;;;;8.59;100.00;102129.16;5334593;27;20016;-80
2021/12/12 14:41:59;;;;;;;18.93;14.33;;;;;;;8.47;100.00;102112.09;5329728;27;20031;-84
2021/12/12 14:44:35;;;;;;;18.73;14.23;;;;;;;8.61;100.00;102136.06;5327870;27;20028;-78
2021/12/12 14:47:21;;;;;;;20.10;16.30;;;;;;;8.54;100.00;102131.03;5331472;27;20038;-80
2021/12/12 14:50:00;;;;;;;19.20;15.43;;;;;;;8.61;100.00;102138.69;5332125;27;20030;-85
2021/12/12 14:52:34;;;;;;;22.70;16.50;;;;;;;8.57;100.00;102145.78;5328342;27;20015;-77
2021/12/12 14:55:21;;;;;;;19.77;14.75;;;;;;;8.58;100.00;102131.81;5332847;27;20031;-82
2021/12/12 14:58:04;;;;;;;18.73;15.90;;;;;;;8.68;100.00;102143.69;5328660;27;20028;-88
2021/12/12 15:00:55;;;;;;;18.30;15.47;;;;;;;8.77;100.00;102149.53;5315699;27;20500;-75
2021/12/12 15:03:46;;;;;;;20.17;16.60;;;;;;;8.70;100.00;102152.34;5332144;27;20079;-85
2021/12/12 15:06:22;;;;;;;21.13;17.23;;;;;;;8.69;100.00;102155.00;5334185;27;20759;-83
2021/12/12 15:09:11;;;;;;;19.07;16.03;;;;;;;8.67;100.00;102144.59;5334541;27;20117;-86
2021/12/12 15:11:52;;;;;;;20.07;17.57;;;;;;;8.63;100.00;102145.59;5332704;28;20047;-84
2021/12/12 15:14:27;;;;;;;19.93;16.83;;;;;;;8.57;100.00;102141.41;5328700;28;20053;-82
2021/12/12 15:16:58;;;;;;;;;;;;;;;8.79;100.00;102161.66;5330214;28;20483;-81
2021/12/12 15:19:30;;;;;;;17.77;15.20;;;;;;;8.66;100.00;102155.94;5333436;28;19915;-74
2021/12/12 15:22:11;;;;;;;18.37;16.40;;;;;;;8.71;100.00;102159.25;5331844;28;20059;-76
2021/12/12 15:24:47;;;;;;;21.13;17.03;;;;;;;8.71;100.00;102168.84;5334187;28;20027;-75
2021/12/12 15:27:32;;;;;;;19.47;16.37;;;;;;;8.73;100.00;102156.59;5330299;28;20031;-74
2021/12/12 15:30:21;;;;;;;19.13;16.93;;;;;;;8.73;100.00;102168.81;5333980;28;20054;-74
2021/12/12 15:32:57;;;;;;;19.73;16.17;;;;;;;8.74;100.00;102174.00;5313748;28;20031;-73
2021/12/12 15:35:32;;;;;;;18.97;16.97;;;;;;;8.73;100.00;102181.88;5332572;28;20389;-73
2021/12/12 15:38:12;;;;;;;21.30;19.03;;;;;;;8.69;100.00;102171.50;5332954;28;20473;-75
2021/12/12 15:40:48;;;;;;;19.57;17.57;;;;;;;8.71;100.00;102174.94;5332294;28;20034;-71
2021/12/12 15:43:24;;;;;;;23.53;19.53;;;;;;;8.74;100.00;102180.97;5308434;28;20024;-72
2021/12/12 15:46:01;;;;;;;19.20;17.17;;;;;;;8.78;100.00;102180.81;5331467;28;20087;-71
2021/12/12 15:48:46;;;;;;;20.37;17.87;;;;;;;8.77;100.00;102181.72;5329512;28;20048;-73
2021/12/12 15:51:26;;;;;;;21.57;19.03;;;;;;;8.81;100.00;102191.16;5314761;28;20127;-74
2021/12/12 15:54:06;;;;;;;22.13;19.53;;;;;;;8.86;100.00;102191.06;5329759;28;20031;-73
2021/12/12 15:56:54;;;;;;;24.90;19.27;;;;;;;8.79;100.00;102181.69;5330734;28;20048;-78
2021/12/12 15:59:30;;;;;;;27.67;22.07;;;;;;;8.83;100.00;102180.69;5327370;28;20028;-72
2021/12/12 16:02:18;;;;;;;29.80;22.27;;;;;;;8.83;100.00;102170.25;5315830;27;20505;-75
2021/12/12 16:04:57;;;;;;;28.77;23.37;;;;;;;8.81;100.00;102183.34;5337281;27;20492;-76
2021/12/12 16:07:29;;;;;;;32.03;24.80;;;;;;;8.89;100.00;102183.09;5318901;27;20031;-74
2021/12/12 16:10:11;;;;;;;30.83;25.10;;;;;;;8.92;100.00;102187.41;5335918;27;20099;-75
2021/12/12 16:12:46;;;;;;;36.93;29.00;;;;;;;8.93;100.00;102189.97;5310239;27;20026;-72
2021/12/12 16:15:20;;;;;;;37.90;26.93;;;;;;;8.92;100.00;102198.69;5335900;27;20100;-77
2021/12/12 16:17:55;;;;;;;44.20;27.97;;;;;;;8.92;100.00;102200.47;5309823;27;20429;-73
2021/12/12 16:20:34;;;;;;;40.93;29.20;;;;;;;8.98;100.00;102191.56;5336481;27;20025;-74
2021/12/12 16:23:11;;;;;;;40.70;31.13;;;;;;;8.98;100.00;102192.41;5325191;27;20038;-74
2021/12/12 16:25:46;;;;;;;45.60;33.67;;;;;;;8.95;100.00;102188.13;5336474;27;20588;-74
2021/12/12 16:28:21;;;;;;;49.40;34.80;;;;;;;8.95;100.00;102201.19;5334926;27;20405;-73
2021/12/12 16:31:09;;;;;;;59.57;36.47;;;;;;;8.98;100.00;102202.88;5320129;27;20029;-73
2021/12/12 16:33:52;;;;;;;54.53;36.80;;;;;;;8.98;100.00;102202.00;5337595;27;20381;-74
2021/12/12 16:36:30;;;;;;;54.90;35.90;;;;;;;9.04;100.00;102212.28;5322874;27;20533;-76
2021/12/12 16:39:08;;;;;;;66.27;37.80;;;;;;;9.06;100.00;102215.69;5330109;27;20030;-71
2021/12/12 16:41:43;;;;;;;75.20;43.13;;;;;;;9.04;100.00;102212.28;5326389;27;20076;-70
2021/12/12 16:44:25;;;;;;;64.50;40.43;;;;;;;9.12;100.00;102220.75;5337741;27;20528;-74
2021/12/12 16:47:00;;;;;;;64.40;40.77;;;;;;;9.11;100.00;102219.00;5336457;27;20027;-71
2021/12/12 16:49:36;;;;;;;57.73;38.13;;;;;;;9.11;100.00;102224.22;5322273;27;20123;-71
2021/12/12 16:52:10;;;;;;;55.47;39.53;;;;;;;9.11;100.00;102229.47;5332413;27;20034;-71
2021/12/12 16:54:43;;;;;;;;;;;;;;;9.29;100.00;102232.41;5337487;27;20033;-71
2021/12/12 16:57:36;;;;;;;62.47;36.40;;;;;;;9.19;100.00;102214.41;5337585;27;20011;-73
2021/12/12 17:00:23;;;;;;;55.33;36.10;;;;;;;9.22;100.00;102223.91;5334847;27;20057;-73
2021/12/12 17:03:02;;;;;;;59.17;36.90;;;;;;;9.16;100.00;102216.28;5315446;28;20030;-72
2021/12/12 17:05:38;;;;;;;54.80;35.07;;;;;;;9.22;100.00;102223.03;5321690;27;20661;-72
2021/12/12 17:08:28;;;;;;;49.27;35.60;;;;;;;9.22;100.00;102218.69;5336221;27;20030;-74
2021/12/12 17:11:01;;;;;;;56.60;35.97;;;;;;;9.31;100.00;102231.47;5327190;27;20106;-71
2021/12/12 17:13:35;;;;;;;53.03;36.50;;;;;;;9.30;100.00;102223.66;5317104;27;20509;-72
2021/12/12 17:16:07;;;;;;;50.17;34.63;;;;;;;9.26;100.00;102217.69;5335203;27;20106;-71
2021/12/12 17:18:41;;;;;;;51.77;34.10;;;;;;;9.23;100.00;102228.25;5335932;27;20030;-75
2021/12/12 17:21:19;;;;;;;52.90;33.90;;;;;;;9.29;100.00;102220.19;5315992;27;20036;-72
2021/12/12 17:23:59;;;;;;;55.63;37.83;;;;;;;9.36;100.00;102228.69;5334731;27;20521;-72
2021/12/12 17:26:35;;;;;;;56.07;34.60;;;;;;;9.32;100.00;102233.16;5335965;27;20035;-71
2021/12/12 17:29:10;;;;;;;53.37;34.63;;;;;;;9.34;100.00;102243.56;5336696;27;20109;-72
2021/12/12 17:31:42;;;;;;;53.97;34.00;;;;;;;9.30;100.00;102234.97;5329346;27;20204;-71
2021/12/12 17:34:25;;;;;;;50.93;32.33;;;;;;;9.40;100.00;102232.94;5335499;27;20110;-71
2021/12/12 17:37:10;;;;;;;52.83;33.33;;;;;;;9.32;100.00;102222.69;5332674;27;20023;-71
2021/12/12 17:39:46;;;;;;;;;;;;;;;9.53;100.00;102237.75;5335851;27;20030;-72
2021/12/12 17:42:57;;;;;;;49.13;33.87;;;;;;;9.44;100.00;102244.16;5335205;27;19915;-71
2021/12/12 17:46:25;;;;;;;54.87;34.27;;;;;;;9.52;100.00;102244.75;5332090;27;20084;-72
2021/12/12 17:49:11;;;;;;;57.60;35.07;;;;;;;9.51;100.00;102240.41;5213581;28;20068;-71
2021/12/12 17:52:20;;;;;;;58.50;35.63;;;;;;;9.51;100.00;102247.41;5234697;28;20083;-72
2021/12/12 17:55:05;;;;;;;52.97;33.40;;;;;;;9.50;100.00;102250.91;5328109;27;20023;-72
2021/12/12 17:57:36;;;;;;;;;;;;;;;9.58;100.00;102246.31;5336218;27;20026;-74
2021/12/12 18:00:21;;;;;;;44.97;31.52;;;;;;;9.48;100.00;102263.22;5313468;27;19915;-79
2021/12/12 18:02:57;;;;;;;44.58;32.03;;;;;;;9.48;100.00;102268.44;5315543;27;20034;-74
2021/12/12 18:05:34;;;;;;;48.97;32.90;;;;;;;9.47;100.00;102253.63;5332367;27;20125;-73
2021/12/12 18:08:22;;;;;;;51.07;32.17;;;;;;;9.50;100.00;102266.59;5330303;27;20023;-74
2021/12/12 18:10:59;;;;;;;49.93;33.07;;;;;;;9.57;100.00;102252.44;5333144;27;20079;-73
2021/12/12 18:13:34;;;;;;;53.60;31.60;;;;;;;9.48;100.00;102253.59;5334129;27;20043;-74
2021/12/12 18:16:08;;;;;;;53.00;33.50;;;;;;;9.54;100.00;102270.84;5329042;27;20023;-73
2021/12/12 18:18:40;;;;;;;52.72;31.33;;;;;;;9.59;100.00;102260.22;5335386;27;20027;-73
2021/12/12 18:21:15;;;;;;;47.53;31.20;;;;;;;9.58;100.00;102264.63;5332320;27;20084;-72
2021/12/12 18:23:48;;;;;;;49.30;31.50;;;;;;;9.57;100.00;102257.66;5334703;27;20067;-72
2021/12/12 18:26:22;;;;;;;43.17;31.57;;;;;;;9.59;100.00;102266.31;5334014;27;20424;-73
2021/12/12 18:28:57;;;;;;;53.13;32.60;;;;;;;9.54;100.00;102258.63;5325140;27;20063;-74
2021/12/12 18:31:41;;;;;;;46.27;31.17;;;;;;;9.58;100.00;102255.91;5312804;28;20024;-73
2021/12/12 18:34:14;;;;;;;48.77;30.07;;;;;;;9.57;100.00;102257.66;5307248;27;20023;-74
2021/12/12 18:36:51;;;;;;;51.53;32.87;;;;;;;9.55;100.00;102270.78;5334167;27;20058;-74
2021/12/12 18:39:31;;;;;;;46.43;30.87;;;;;;;9.58;100.00;102269.84;5335233;27;20030;-76
2021/12/12 18:42:05;;;;;;;51.00;30.77;;;;;;;9.51;100.00;102273.56;5334008;27;20053;-74
2021/12/12 18:44:41;;;;;;;49.37;32.97;;;;;;;9.54;100.00;102269.09;5334699;27;20027;-73
2021/12/12 18:47:14;;;;;;;47.17;30.00;;;;;;;9.55;100.00;102275.16;5332340;27;20426;-72
2021/12/12 18:49:49;;;;;;;45.17;30.23;;;;;;;9.53;100.00;102272.59;5334309;27;20015;-73
2021/12/12 18:52:28;;;;;;;45.97;32.03;;;;;;;9.62;100.00;102284.53;5334721;27;20031;-73
2021/12/12 18:54:59;;;;;;;47.30;32.00;;;;;;;9.60;100.00;102288.94;5334861;27;20070;-73
2021/12/12 18:57:40;;;;;;;51.20;32.27;;;;;;;9.56;100.00;102279.50;5333527;27;20118;-72
2021/12/12 19:00:14;;;;;;;47.03;32.87;;;;;;;9.60;100.00;102293.34;5332967;27;20034;-72
2021/12/12 19:02:55;;;;;;;46.15;33.10;;;;;;;9.59;100.00;102286.38;5321897;27;20142;-72
2021/12/12 19:05:32;;;;;;;46.93;29.97;;;;;;;9.60;100.00;102295.97;5308964;27;20374;-72
2021/12/12 19:08:22;;;;;;;52.63;32.50;;;;;;;9.67;100.00;102297.44;5311493;28;20061;-71
2021/12/12 19:11:01;;;;;;;48.40;31.27;;;;;;;9.63;100.00;102299.34;5284511;28;20027;-73
2021/12/12 19:13:38;;;;;;;46.03;30.93;;;;;;;9.61;100.00;102311.59;5301809;28;20160;-72
2021/12/12 19:16:12;;;;;;;50.90;33.03;;;;;;;9.63;100.00;102319.38;5312264;28;20781;-72
2021/12/12 19:18:53;;;;;;;43.08;29.67;;;;;;;9.66;100.00;102309.69;5295851;28;20028;-72
2021/12/12 19:21:39;;;;;;;48.00;32.83;;;;;;;9.63;100.00;102312.41;5311581;28;20035;-71
2021/12/12 19:24:16;;;;;;;40.93;29.60;;;;;;;9.64;100.00;102318.47;5287881;28;20798;-70
2021/12/12 19:26:54;;;;;;;46.20;30.67;;;;;;;9.62;100.00;102312.44;5312278;28;20473;-70
2021/12/12 19:29:29;;;;;;;46.03;31.93;;;;;;;9.64;100.00;102327.19;5301425;28;20087;-71
2021/12/12 19:32:10;;;;;;;42.70;30.63;;;;;;;9.75;100.00;102328.59;5306816;28;20128;-70
2021/12/12 19:34:50;;;;;;;42.23;30.63;;;;;;;9.73;100.00;102330.41;5301515;28;20058;-71
2021/12/12 19:37:25;;;;;;;46.47;30.10;;;;;;;9.65;100.00;102331.50;5312756;27;20066;-72
2021/12/12 19:39:58;;;;;;;43.90;30.75;;;;;;;9.65;100.00;102328.88;5313354;27;20054;-72
2021/12/12 19:42:34;;;;;;;46.08;30.92;;;;;;;9.63;100.00;102335.94;5317665;27;20016;-72
2021/12/12 19:45:23;;;;;;;44.07;30.17;;;;;;;9.65;100.00;102336.72;5315339;27;20211;-71
2021/12/12 19:47:59;;;;;;;40.90;29.40;;;;;;;9.58;100.00;102327.41;5311960;27;20038;-72
2021/12/12 19:50:37;;;;;;;42.60;30.30;;;;;;;9.60;100.00;102330.78;5316521;27;20032;-73
2021/12/12 19:53:10;;;;;;;48.10;30.13;;;;;;;9.61;100.00;102334.28;5337146;27;20079;-71
2021/12/12 19:55:46;;;;;;;41.50;28.23;;;;;;;9.63;100.00;102335.94;5337070;27;20029;-73
2021/12/12 19:58:22;;;;;;;42.33;28.47;;;;;;;9.67;100.00;102334.06;5328544;27;20055;-74
2021/12/12 20:00:58;;;;;;;40.83;30.27;;;;;;;9.63;100.00;102330.72;5331593;27;20458;-72
2021/12/12 20:03:36;;;;;;;41.23;29.87;;;;;;;9.61;100.00;102324.69;5337388;27;20027;-76
2021/12/12 20:06:12;;;;;;;45.70;30.73;;;;;;;9.60;100.00;102325.56;5319418;27;20035;-71
2021/12/12 20:08:54;;;;;;;44.87;29.67;;;;;;;9.63;100.00;102325.50;5335633;27;20544;-71
2021/12/12 20:11:30;;;;;;;43.23;29.90;;;;;;;9.66;100.00;102325.38;5334918;27;20015;-72
2021/12/12 20:14:05;;;;;;;45.73;29.90;;;;;;;9.64;100.00;102321.09;5329259;27;20486;-72
2021/12/12 20:16:44;;;;;;;37.43;28.60;;;;;;;9.67;100.00;102327.09;5333148;27;20397;-71
2021/12/12 20:19:21;;;;;;;38.77;30.20;;;;;;;9.72;100.00;102328.72;5337289;27;20030;-71
2021/12/12 20:22:12;;;;;;;36.63;27.40;;;;;;;9.73;100.00;102331.28;5336403;27;20102;-71
2021/12/12 20:24:51;;;;;;;36.77;27.57;;;;;;;9.67;100.00;102327.09;5337651;27;20023;-72
2021/12/12 20:27:30;;;;;;;40.63;27.47;;;;;;;9.69;100.00;102334.88;5337680;27;20381;-72
2021/12/12 20:30:24;;;;;;;41.57;28.87;;;;;;;9.62;100.00;102339.47;5337709;27;20420;-73
2021/12/12 20:33:08;;;;;;;38.63;27.63;;;;;;;9.57;100.00;102330.91;5338084;27;20410;-75
2021/12/12 20:35:49;;;;;;;39.60;29.17;;;;;;;9.64;100.00;102337.66;5336876;27;20412;-70
2021/12/12 20:38:33;;;;;;;41.83;29.53;;;;;;;9.60;100.00;102340.41;5334161;27;20043;-72
2021/12/12 20:41:33;;;;;;;42.83;27.50;;;;;;;9.64;100.00;102335.03;5336348;27;20031;-72
2021/12/12 20:44:09;;;;;;;39.87;29.53;;;;;;;9.52;100.00;102343.25;5337230;27;20027;-72
2021/12/12 20:46:47;;;;;;;36.50;28.47;;;;;;;9.58;100.00;102353.56;5317060;27;20042;-73
2021/12/12 20:49:23;;;;;;;42.93;29.83;;;;;;;9.62;100.00;102355.16;5336618;27;20035;-73
2021/12/12 20:52:05;;;;;;;40.23;28.97;;;;;;;9.71;100.00;102361.00;5318212;27;20054;-73
2021/12/12 20:54:45;;;;;;;35.93;27.63;;;;;;;9.74;100.00;102358.31;5312992;27;20041;-74
